Time;durP1;ratioP1;P1;durP2;ratioP2;P2;SDS_P1;SDS_P2;PMS_P1;PMS_P2;Temp;Humidity;BMP_temperature;BMP_pressure;BME280_temperature;BME280_humidity;BME280_pressure;Samples;Min_cycle;Max_cycle;Signal;HPM_P1;HPM_P2
2023/08/10 00:00:47;;;;;;;8.70;3.70;;;;;;;12.92;100.00;102043.44;4922072;28;20043;-75
2023/08/10 00:03:15;;;;;;;6.43;2.63;;;;;;;12.90;100.00;102040.78;4948600;28;20050;-76
2023/08/10 00:05:42;;;;;;;6.85;3.10;;;;;;;12.90;100.00;102050.47;4946906;28;20062;-76
2023/08/10 00:08:10;;;;;;;5.40;2.88;;;;;;;12.89;100.00;102039.00;4933123;29;20051;-75
2023/08/10 00:10:38;;;;;;;9.63;3.13;;;;;;;12.87;100.00;102036.34;4932296;29;20520;-75
2023/08/10 00:13:05;;;;;;;5.15;3.60;;;;;;;12.85;100.00;102043.38;4965495;28;20054;-75
2023/08/10 00:15:33;;;;;;;4.90;2.38;;;;;;;12.85;100.00;102048.66;4911494;28;20059;-75
2023/08/10 00:18:00;;;;;;;6.75;3.08;;;;;;;12.85;100.00;102046.03;4933030;28;20059;-75
2023/08/10 00:20:27;;;;;;;11.70;2.50;;;;;;;12.85;100.00;102050.41;4957533;28;20055;-75
2023/08/10 00:22:55;;;;;;;9.73;2.85;;;;;;;12.85;100.00;102047.75;4949834;28;20051;-77
2023/08/10 00:25:22;;;;;;;4.25;2.60;;;;;;;12.84;100.00;102053.94;4948443;28;20050;-75
2023/08/10 00:27:50;;;;;;;4.53;3.03;;;;;;;12.83;100.00;102045.09;4950002;28;20051;-75
2023/08/10 00:30:18;;;;;;;7.55;3.30;;;;;;;12.81;100.00;102046.81;4932286;29;20555;-77
2023/08/10 00:32:46;;;;;;;5.18;2.72;;;;;;;12.80;100.00;102038.91;4923441;28;20439;-76
2023/08/10 00:35:13;;;;;;;7.70;3.08;;;;;;;12.77;100.00;102045.00;4949087;28;20055;-76
2023/08/10 00:37:41;;;;;;;5.93;2.95;;;;;;;12.76;100.00;102047.63;4943788;28;20420;-75
2023/08/10 00:40:12;;;;;;;6.03;3.17;;;;;;;12.75;100.00;102051.16;4947451;28;20047;-76
2023/08/10 00:42:41;;;;;;;6.95;3.15;;;;;;;12.71;100.00;102044.94;4951245;28;20054;-75
2023/08/10 00:45:09;;;;;;;4.75;2.85;;;;;;;12.68;100.00;102044.88;4947420;28;20078;-76
2023/08/10 00:47:38;;;;;;;5.32;2.65;;;;;;;12.65;100.00;102043.09;4911920;28;20058;-75
2023/08/10 00:50:07;;;;;;;4.82;2.90;;;;;;;12.63;100.00;102042.19;4958646;28;20665;-77
2023/08/10 00:52:34;;;;;;;5.30;3.10;;;;;;;12.61;100.00;102043.06;4943275;28;20047;-77
2023/08/10 00:55:02;;;;;;;7.05;3.08;;;;;;;12.61;100.00;102048.34;4950356;29;20043;-75
2023/08/10 00:57:30;;;;;;;10.15;2.53;;;;;;;12.58;100.00;102046.53;4948379;29;20568;-75
2023/08/10 00:59:58;;;;;;;6.47;3.10;;;;;;;12.59;100.00;102042.13;4949924;28;20070;-75
2023/08/10 01:02:27;;;;;;;3.33;2.53;;;;;;;12.56;100.00;102042.09;4906026;28;20054;-75
2023/08/10 01:04:54;;;;;;;8.20;2.95;;;;;;;12.54;100.00;102042.06;4965661;28;20047;-75
2023/08/10 01:07:38;;;;;;;4.90;3.25;;;;;;;12.53;100.00;102039.38;4931841;29;20043;-75
2023/08/10 01:10:25;;;;;;;6.43;2.83;;;;;;;12.50;100.00;102039.38;4943083;28;20058;-74
2023/08/10 01:13:05;;;;;;;3.65;2.72;;;;;;;12.47;100.00;102056.06;4951697;29;20043;-75
2023/08/10 01:15:41;;;;;;;9.15;2.47;;;;;;;12.45;100.00;102048.09;4949197;29;20035;-76
2023/08/10 01:18:18;;;;;;;4.88;2.90;;;;;;;12.44;100.00;102051.63;4921511;28;20058;-75
2023/08/10 01:20:49;;;;;;;4.60;2.20;;;;;;;12.42;100.00;102042.78;4953274;28;20051;-76
2023/08/10 01:23:30;;;;;;;4.13;2.63;;;;;;;12.41;100.00;102051.56;4940003;28;20047;-75
2023/08/10 01:25:59;;;;;;;3.17;2.00;;;;;;;12.41;100.00;102046.28;4949502;28;20416;-76
2023/08/10 01:28:27;;;;;;;11.52;3.05;;;;;;;12.40;100.00;102051.53;4949219;28;20051;-76
2023/08/10 01:30:55;;;;;;;5.45;2.78;;;;;;;12.36;100.00;102048.00;4951553;29;20047;-75
2023/08/10 01:33:22;;;;;;;4.38;2.40;;;;;;;12.35;100.00;102048.84;4948032;29;20074;-75
2023/08/10 01:35:49;;;;;;;3.67;2.63;;;;;;;12.34;100.00;102054.09;4904591;28;20074;-76
2023/08/10 01:38:17;;;;;;;8.40;2.60;;;;;;;12.32;100.00;102058.47;4963050;28;20046;-75
2023/08/10 01:40:45;;;;;;;4.97;2.78;;;;;;;12.29;100.00;102054.91;4944270;28;20493;-75
2023/08/10 01:43:13;;;;;;;8.40;2.78;;;;;;;12.27;100.00;102043.44;4947997;28;20062;-75
2023/08/10 01:45:44;;;;;;;3.40;2.60;;;;;;;12.24;100.00;102055.72;4949168;28;20505;-75
2023/08/10 01:48:24;;;;;;;6.20;2.92;;;;;;;12.21;100.00;102058.28;4946222;29;20623;-76
2023/08/10 01:50:53;;;;;;;4.50;2.63;;;;;;;12.18;100.00;102055.63;4908015;28;20088;-75
2023/08/10 01:53:28;;;;;;;3.90;2.58;;;;;;;12.16;100.00;102054.72;4961782;28;20044;-75
2023/08/10 01:55:57;;;;;;;6.75;2.63;;;;;;;12.15;100.00;102060.84;4959256;28;20493;-75
2023/08/10 01:58:24;;;;;;;6.05;2.92;;;;;;;12.16;100.00;102054.72;4946833;29;20059;-75
2023/08/10 02:00:52;;;;;;;4.95;3.28;;;;;;;12.17;100.00;102056.47;4947930;29;20047;-75
2023/08/10 02:03:19;;;;;;;4.47;2.80;;;;;;;12.18;100.00;102053.88;4947055;28;20054;-75
2023/08/10 02:05:47;;;;;;;7.28;3.15;;;;;;;12.19;100.00;102050.38;4948104;28;20066;-76
2023/08/10 02:08:14;;;;;;;6.10;3.03;;;;;;;12.22;100.00;102053.03;4918220;28;20117;-76
2023/08/10 02:10:42;;;;;;;6.22;2.65;;;;;;;12.24;100.00;102055.72;4942581;29;20047;-75
2023/08/10 02:13:09;;;;;;;4.50;2.80;;;;;;;12.24;100.00;102059.25;4961432;28;20796;-76
2023/08/10 02:15:36;;;;;;;9.63;3.30;;;;;;;12.26;100.00;102061.91;4947415;28;20063;-75
2023/08/10 02:18:04;;;;;;;6.93;3.05;;;;;;;12.28;100.00;102055.78;4946498;28;20058;-75
2023/08/10 02:20:32;;;;;;;4.65;3.20;;;;;;;12.28;100.00;102058.41;4948353;28;20488;-75
2023/08/10 02:22:59;;;;;;;4.50;2.95;;;;;;;12.27;100.00;102053.13;4911115;28;20066;-75
2023/08/10 02:25:27;;;;;;;6.20;3.30;;;;;;;12.26;100.00;102061.91;4939733;28;20063;-77
2023/08/10 02:27:54;;;;;;;8.18;3.10;;;;;;;12.25;100.00;102058.38;4948601;29;20054;-77
2023/08/10 02:30:22;;;;;;;5.00;2.80;;;;;;;12.25;100.00;102062.78;4926663;29;20048;-75
2023/08/10 02:32:49;;;;;;;4.68;2.88;;;;;;;12.27;100.00;102069.00;4965445;28;20051;-76
2023/08/10 02:35:17;;;;;;;8.15;3.13;;;;;;;12.28;100.00;102069.00;4946745;28;20070;-75
2023/08/10 02:37:44;;;;;;;6.90;3.78;;;;;;;12.31;100.00;102073.44;4911709;28;20046;-76
2023/08/10 02:40:12;;;;;;;6.57;2.65;;;;;;;12.33;100.00;102069.06;4961648;28;20036;-76
2023/08/10 02:42:39;;;;;;;13.77;3.53;;;;;;;12.36;100.00;102069.13;4946852;28;20047;-75
2023/08/10 02:45:09;;;;;;;4.18;3.05;;;;;;;12.38;100.00;102069.13;4945508;28;20050;-76
2023/08/10 02:47:36;;;;;;;4.40;2.80;;;;;;;12.40;100.00;102062.09;4947402;29;20050;-76
2023/08/10 02:50:07;;;;;;;5.28;3.65;;;;;;;12.43;100.00;102064.81;4946641;28;20500;-77
2023/08/10 02:52:36;;;;;;;4.50;3.00;;;;;;;12.44;100.00;102062.19;4909220;28;20073;-75
2023/08/10 02:55:05;;;;;;;4.95;3.58;;;;;;;12.46;100.00;102075.44;4956707;28;20050;-75
2023/08/10 02:57:33;;;;;;;5.28;2.85;;;;;;;12.45;100.00;102073.66;4939538;28;20078;-76
2023/08/10 03:00:00;;;;;;;5.70;2.95;;;;;;;12.43;100.00;102075.38;4947940;29;20043;-76
2023/08/10 03:02:28;;;;;;;8.07;3.20;;;;;;;12.42;100.00;102081.53;4944567;28;20756;-76
2023/08/10 03:04:57;;;;;;;5.47;3.65;;;;;;;12.41;100.00;102072.72;4962334;28;20047;-76
2023/08/10 03:07:26;;;;;;;5.72;3.05;;;;;;;12.42;100.00;102078.88;4944442;29;20055;-75
2023/08/10 03:09:55;;;;;;;9.60;3.67;;;;;;;12.44;100.00;102085.13;4908769;28;20051;-76
2023/08/10 03:12:25;;;;;;;8.52;3.33;;;;;;;12.46;100.00;102086.03;4954615;28;20152;-76
2023/08/10 03:14:53;;;;;;;5.72;3.30;;;;;;;12.46;100.00;102084.25;4947234;29;20505;-75
2023/08/10 03:17:20;;;;;;;4.35;3.42;;;;;;;12.48;100.00;102079.00;4943886;28;20055;-75
2023/08/10 03:19:48;;;;;;;4.32;3.50;;;;;;;12.50;100.00;102082.56;4948141;29;20078;-75
2023/08/10 03:22:16;;;;;;;9.73;3.80;;;;;;;12.50;100.00;102093.13;4944524;28;20060;-75
2023/08/10 03:24:44;;;;;;;7.10;3.20;;;;;;;12.52;100.00;102095.81;4891133;29;20516;-75
2023/08/10 03:27:11;;;;;;;8.23;3.67;;;;;;;12.53;100.00;102089.63;4961738;28;20058;-75
2023/08/10 03:29:38;;;;;;;5.43;3.38;;;;;;;12.54;100.00;102087.00;4936859;28;20501;-75
2023/08/10 03:32:07;;;;;;;3.63;3.33;;;;;;;12.56;100.00;102082.63;4935024;29;20051;-75
2023/08/10 03:34:34;;;;;;;5.97;3.33;;;;;;;12.57;100.00;102072.94;4951329;28;20062;-76
2023/08/10 03:37:02;;;;;;;6.43;3.35;;;;;;;12.60;100.00;102076.53;4959043;28;20055;-75
2023/08/10 03:39:30;;;;;;;7.65;3.25;;;;;;;12.62;100.00;102081.84;4923619;28;20528;-75
2023/08/10 03:41:58;;;;;;;8.52;3.92;;;;;;;12.65;100.00;102087.19;4983720;28;20059;-75
2023/08/10 03:44:26;;;;;;;6.30;3.30;;;;;;;12.65;100.00;102089.81;4942789;28;20047;-75
2023/08/10 03:46:53;;;;;;;5.38;3.00;;;;;;;12.66;100.00;102084.56;4951524;28;20047;-76
2023/08/10 03:49:22;;;;;;;8.07;3.20;;;;;;;12.67;100.00;102083.69;4949388;29;20043;-75
2023/08/10 03:51:50;;;;;;;7.07;3.40;;;;;;;12.70;100.00;102090.75;4951347;28;20424;-76
2023/08/10 03:54:18;;;;;;;4.20;2.58;;;;;;;12.72;100.00;102091.69;4906276;28;20050;-76
2023/08/10 03:56:45;;;;;;;5.35;3.70;;;;;;;12.74;100.00;102092.59;4982258;28;20500;-75
2023/08/10 03:59:13;;;;;;;4.72;3.10;;;;;;;12.76;100.00;102082.03;4925492;29;20047;-75
2023/08/10 04:01:41;;;;;;;5.78;2.80;;;;;;;12.78;100.00;102086.47;4919440;29;20047;-76
2023/08/10 04:04:08;;;;;;;7.60;3.92;;;;;;;12.80;100.00;102091.81;4948628;28;20058;-76
2023/08/10 04:06:36;;;;;;;5.25;4.35;;;;;;;12.82;100.00;102098.88;4918210;29;20043;-75
2023/08/10 04:09:04;;;;;;;4.30;3.13;;;;;;;12.85;100.00;102096.28;4964279;28;20428;-75
2023/08/10 04:11:32;;;;;;;6.20;3.20;;;;;;;12.87;100.00;102099.84;4908560;28;20769;-76
2023/08/10 04:13:59;;;;;;;4.68;3.15;;;;;;;12.90;100.00;102098.97;4951048;29;20054;-76
2023/08/10 04:16:27;;;;;;;7.63;3.20;;;;;;;12.91;100.00;102100.78;4942481;28;20058;-75
2023/08/10 04:18:54;;;;;;;12.30;3.40;;;;;;;12.91;100.00;102102.50;4950956;28;20501;-75
2023/08/10 04:21:22;;;;;;;9.68;3.22;;;;;;;12.91;100.00;102103.41;4947231;28;20044;-75
2023/08/10 04:23:49;;;;;;;9.48;3.58;;;;;;;12.88;100.00;102101.59;4950286;29;20543;-75
2023/08/10 04:26:17;;;;;;;6.10;2.92;;;;;;;12.86;100.00;102098.03;4902884;28;20877;-76
2023/08/10 04:28:45;;;;;;;11.45;3.40;;;;;;;12.87;100.00;102099.84;4966629;28;20054;-76
2023/08/10 04:31:12;;;;;;;4.35;2.95;;;;;;;12.86;100.00;102102.47;4940495;28;20425;-75
2023/08/10 04:33:40;;;;;;;8.93;2.85;;;;;;;12.87;100.00;102104.22;4954916;28;20054;-75
2023/08/10 04:36:07;;;;;;;8.02;3.20;;;;;;;12.90;100.00;102098.97;4940620;28;20541;-76
2023/08/10 04:38:35;;;;;;;9.95;3.05;;;;;;;12.92;100.00;102106.94;4950064;28;20464;-75
2023/08/10 04:41:02;;;;;;;4.85;3.20;;;;;;;12.94;100.00;102099.91;4950780;29;20047;-76
2023/08/10 04:43:30;;;;;;;5.93;3.00;;;;;;;12.96;100.00;102104.34;4903244;28;20050;-76
2023/08/10 04:45:57;;;;;;;6.22;3.10;;;;;;;13.00;100.00;102105.28;4942823;28;20456;-76
2023/08/10 04:48:25;;;;;;;7.10;3.08;;;;;;;13.06;100.00;102105.34;4947340;28;20117;-74
2023/08/10 04:50:52;;;;;;;6.63;2.90;;;;;;;13.09;100.00;102105.41;4981174;28;20055;-76
2023/08/10 04:53:20;;;;;;;5.25;2.78;;;;;;;13.13;100.00;102114.28;4947331;28;20055;-75
2023/08/10 04:55:47;;;;;;;5.20;3.10;;;;;;;13.17;100.00;102118.72;4949321;28;20054;-76
2023/08/10 04:58:14;;;;;;;7.60;3.58;;;;;;;13.19;100.00;102109.94;4907628;28;20504;-76
2023/08/10 05:00:42;;;;;;;4.15;2.72;;;;;;;13.24;100.00;102110.00;4943962;28;20054;-76
2023/08/10 05:03:10;;;;;;;4.35;3.22;;;;;;;13.29;100.00;102116.25;4931555;29;20055;-76
2023/08/10 05:05:40;;;;;;;3.55;3.00;;;;;;;13.36;100.00;102110.16;4981212;28;20055;-75
2023/08/10 05:08:08;;;;;;;5.00;3.25;;;;;;;13.40;100.00;102112.00;4948562;29;20051;-75
2023/08/10 05:10:36;;;;;;;6.88;2.92;;;;;;;13.44;100.00;102112.94;4948888;29;20582;-75
2023/08/10 05:13:04;;;;;;;7.45;2.83;;;;;;;13.48;100.00;102109.44;4932233;28;20047;-75
2023/08/10 05:15:31;;;;;;;7.57;3.67;;;;;;;13.51;100.00;102114.75;4928653;28;20049;-75
2023/08/10 05:17:59;;;;;;;6.85;3.40;;;;;;;13.54;100.00;102112.16;4942942;28;20132;-75
2023/08/10 05:20:26;;;;;;;5.32;3.33;;;;;;;13.58;100.00;102113.97;4948710;28;20051;-75
2023/08/10 05:22:54;;;;;;;6.43;3.08;;;;;;;13.61;100.00;102111.34;4950694;29;20055;-76
2023/08/10 05:25:22;;;;;;;7.30;3.20;;;;;;;13.67;100.00;102106.97;4961867;28;20705;-75
2023/08/10 05:27:49;;;;;;;6.30;3.20;;;;;;;13.72;100.00;102100.84;4933822;29;20055;-75
2023/08/10 05:30:17;;;;;;;5.80;2.83;;;;;;;13.80;100.00;102100.97;4902765;28;20043;-76
2023/08/10 05:32:44;;;;;;;4.68;3.00;;;;;;;13.92;100.00;102100.19;4932396;28;20054;-76
2023/08/10 05:35:13;;;;;;;12.13;4.22;;;;;;;14.05;100.00;102102.06;4947759;29;20039;-75
2023/08/10 05:37:41;;;;;;;9.18;3.08;;;;;;;14.17;100.00;102101.28;4952534;29;20058;-76
2023/08/10 05:40:10;;;;;;;9.18;3.00;;;;;;;14.25;100.00;102102.22;4947277;29;20047;-76
2023/08/10 05:42:40;;;;;;;6.95;2.53;;;;;;;14.32;100.00;102114.66;4949069;29;20051;-75
2023/08/10 05:45:09;;;;;;;5.90;2.58;;;;;;;14.39;100.00;102105.88;4925930;28;20058;-75
2023/08/10 05:47:36;;;;;;;2.70;2.50;;;;;;;14.45;100.00;102105.03;4949850;28;20848;-75
2023/08/10 05:50:04;;;;;;;5.55;3.05;;;;;;;14.51;100.00;102098.88;4948910;28;20658;-75
2023/08/10 05:52:32;;;;;;;6.10;2.55;;;;;;;14.57;100.00;102097.22;4947332;28;20051;-75
2023/08/10 05:54:59;;;;;;;4.28;2.70;;;;;;;14.61;100.00;102099.00;4945935;28;20051;-75
2023/08/10 05:57:26;;;;;;;4.65;2.65;;;;;;;14.65;100.00;102093.69;4947120;28;20062;-75
2023/08/10 05:59:54;;;;;;;3.42;2.22;;;;;;;14.72;100.00;102100.81;4949082;28;20063;-76
2023/08/10 06:02:22;;;;;;;4.32;2.33;;;;;;;14.79;100.00;102099.97;4901067;28;20035;-76
2023/08/10 06:04:49;;;;;;;5.50;2.65;;;;;;;14.86;100.00;102106.19;4943024;28;20074;-75
2023/08/10 06:07:16;;;;;;;2.47;1.90;;;;;;;14.94;100.00;102117.75;4914066;29;20074;-75
2023/08/10 06:09:44;;;;;;;5.32;2.25;;;;;;;15.07;100.00;102111.63;4950264;29;20528;-76
2023/08/10 06:12:12;;;;;;;5.03;1.90;;;;;;;15.18;100.00;102117.00;4962554;28;20047;-74
2023/08/10 06:14:39;;;;;;;5.35;2.15;;;;;;;15.27;100.00;102114.34;4948050;29;20063;-74
2023/08/10 06:17:06;;;;;;;3.20;1.70;;;;;;;15.30;100.00;102116.16;4922605;28;20051;-74
2023/08/10 06:19:34;;;;;;;3.20;1.52;;;;;;;15.33;100.00;102114.41;4958710;28;20058;-75
2023/08/10 06:22:02;;;;;;;9.82;2.45;;;;;;;15.39;100.00;102122.38;4932147;28;20055;-74
2023/08/10 06:24:31;;;;;;;4.72;2.25;;;;;;;15.45;100.00;102121.50;4933597;29;20055;-75
2023/08/10 06:26:59;;;;;;;7.55;1.95;;;;;;;15.51;100.00;102120.66;4948522;29;20050;-74
2023/08/10 06:29:26;;;;;;;3.78;1.90;;;;;;;15.59;100.00;102119.81;4946724;28;20043;-74
2023/08/10 06:31:54;;;;;;;9.98;1.60;;;;;;;15.68;100.00;102123.34;4947788;29;20398;-75
2023/08/10 06:34:22;;;;;;;6.95;2.08;;;;;;;15.74;100.00;102118.94;4906908;28;20508;-75
2023/08/10 06:36:52;;;;;;;6.32;1.63;;;;;;;15.84;100.00;102121.63;4948530;29;20047;-75
2023/08/10 06:39:19;;;;;;;6.28;1.92;;;;;;;15.92;100.00;102115.44;4946408;29;20058;-74
2023/08/10 06:41:46;;;;;;;4.18;1.50;;;;;;;16.01;100.00;102119.91;4949352;29;20044;-75
2023/08/10 06:44:14;;;;;;;3.90;1.40;;;;;;;16.08;100.00;102124.31;4946819;28;20051;-75
2023/08/10 06:46:41;;;;;;;8.35;1.98;;;;;;;16.13;100.00;102108.38;4948861;28;20501;-76
2023/08/10 06:49:08;;;;;;;4.53;1.45;;;;;;;16.18;100.00;102122.53;4934700;28;20062;-74
2023/08/10 06:51:36;;;;;;;2.63;1.35;;;;;;;16.23;100.00;102128.75;4941115;28;20055;-74
2023/08/10 06:54:03;;;;;;;6.15;1.60;;;;;;;16.28;100.00;102126.13;4947278;29;20039;-74
2023/08/10 06:56:31;;;;;;;6.07;1.80;;;;;;;16.35;100.00;102127.88;4946467;29;20051;-74
2023/08/10 06:58:58;;;;;;;6.22;1.92;;;;;;;16.39;100.00;102124.34;4947480;28;20044;-74
2023/08/10 07:01:28;;;;;;;7.28;1.75;;;;;;;16.44;100.00;102126.97;4950303;28;20062;-75
2023/08/10 07:03:56;;;;;;;7.63;2.30;;;;;;;16.52;100.00;102122.53;4916104;28;20051;-74
2023/08/10 07:06:23;;;;;;;7.80;1.95;;;;;;;16.60;100.00;102118.09;4942580;28;20043;-75
2023/08/10 07:08:52;;;;;;;7.82;2.53;;;;;;;16.68;100.00;102116.31;4937491;28;20055;-75
2023/08/10 07:11:20;;;;;;;5.95;2.35;;;;;;;16.77;100.00;102120.72;4948587;29;20776;-76
2023/08/10 07:13:51;;;;;;;5.40;1.70;;;;;;;16.87;100.00;102122.50;4968208;28;20051;-76
2023/08/10 07:16:19;;;;;;;6.00;1.88;;;;;;;16.98;100.00;102130.47;4949730;28;20043;-76
2023/08/10 07:18:47;;;;;;;7.03;1.50;;;;;;;17.04;100.00;102133.09;4953093;29;20047;-76
2023/08/10 07:21:15;;;;;;;6.10;1.75;;;;;;;17.19;100.00;102133.97;4905445;28;20051;-75
2023/08/10 07:23:42;;;;;;;3.25;1.58;;;;;;;17.37;100.00;102136.53;4951254;28;20054;-76
2023/08/10 07:26:10;;;;;;;3.75;1.38;;;;;;;17.49;100.00;102131.16;4949440;28;20051;-76
2023/08/10 07:28:37;;;;;;;3.25;1.55;;;;;;;17.62;100.00;102134.63;4951669;29;20489;-76
2023/08/10 07:31:05;;;;;;;4.10;1.02;;;;;;;17.79;100.00;102134.53;4950799;28;20062;-75
2023/08/10 07:33:33;;;;;;;5.32;1.13;;;;;;;17.93;100.00;102130.00;4952606;28;20058;-76
2023/08/10 07:36:00;;;;;;;6.47;1.83;;;;;;;18.05;100.00;102133.50;4912209;28;20497;-76
2023/08/10 07:38:27;;;;;;;2.03;1.27;;;;;;;18.06;100.00;102135.28;4944564;28;20077;-76
2023/08/10 07:40:55;;;;;;;5.72;1.70;;;;;;;18.12;100.00;102143.22;4933453;29;20051;-76
2023/08/10 07:43:22;;;;;;;4.85;1.20;;;;;;;18.18;100.00;102137.81;4941858;29;20039;-76
2023/08/10 07:45:49;;;;;;;6.82;1.50;;;;;;;18.24;100.00;102136.91;4951603;28;20055;-76
2023/08/10 07:48:17;;;;;;;4.43;1.50;;;;;;;18.31;100.00;102143.97;4948433;29;20051;-76
2023/08/10 07:50:44;;;;;;;6.38;1.52;;;;;;;18.40;100.00;102145.69;4919388;28;20453;-76
2023/08/10 07:53:12;;;;;;;7.22;1.50;;;;;;;18.42;100.00;102143.88;4952425;28;20304;-77
2023/08/10 07:55:39;;;;;;;5.07;1.70;;;;;;;18.46;100.00;102145.63;4952976;28;20070;-75
2023/08/10 07:58:07;;;;;;;6.07;1.40;;;;;;;18.54;100.00;102150.88;4951551;29;20044;-75
2023/08/10 08:00:38;;;;;;;5.22;1.45;;;;;;;18.64;100.00;102150.78;4952371;29;20062;-76
2023/08/10 08:03:05;;;;;;;4.20;1.52;;;;;;;18.73;100.00;102154.25;4949810;28;20062;-77
2023/08/10 08:05:37;;;;;;;3.20;1.17;;;;;;;18.79;100.00;102160.44;4912869;28;20055;-76
2023/08/10 08:08:06;;;;;;;5.47;2.20;;;;;;;18.83;100.00;102154.19;4976911;28;20051;-77
2023/08/10 08:10:34;;;;;;;6.38;1.63;;;;;;;18.84;100.00;102160.41;4947305;28;20047;-77
2023/08/10 08:13:06;;;;;;;20.02;3.05;;;;;;;18.87;100.00;102163.94;4948691;29;20391;-76
2023/08/10 08:15:34;;;;;;;8.13;1.95;;;;;;;18.89;100.00;102167.47;4950733;29;20071;-76
2023/08/10 08:18:39;;;;;;;4.82;1.35;;;;;;;18.85;100.00;102163.06;4951627;28;20401;-77
2023/08/10 08:21:08;;;;;;;7.68;1.75;;;;;;;18.75;100.00;102168.47;4929489;28;20051;-76
2023/08/10 08:23:36;;;;;;;5.88;1.30;;;;;;;18.77;100.00;102166.66;4953414;28;20051;-76
2023/08/10 08:26:03;;;;;;;8.63;1.58;;;;;;;18.79;100.00;102165.78;4933968;29;20070;-75
2023/08/10 08:28:31;;;;;;;7.38;1.42;;;;;;;18.80;100.00;102167.56;4951222;29;20046;-75
2023/08/10 08:30:58;;;;;;;3.35;1.20;;;;;;;18.71;100.00;102172.97;4950562;29;20046;-76
2023/08/10 08:33:26;;;;;;;5.85;1.50;;;;;;;18.67;100.00;102168.56;4949035;28;20047;-76
2023/08/10 08:35:54;;;;;;;5.28;1.40;;;;;;;18.67;100.00;102172.09;4950545;29;20430;-76
2023/08/10 08:38:22;;;;;;;5.68;1.42;;;;;;;18.74;100.00;102172.94;4922306;28;20052;-76
2023/08/10 08:40:49;;;;;;;5.38;1.58;;;;;;;18.78;100.00;102174.66;4946741;28;20043;-76
2023/08/10 08:43:17;;;;;;;3.35;1.40;;;;;;;18.74;100.00;102167.59;4945139;28;20576;-76
2023/08/10 08:45:45;;;;;;;8.38;2.10;;;;;;;18.67;100.00;102172.09;4953989;28;20504;-76
2023/08/10 08:48:17;;;;;;;4.78;1.25;;;;;;;18.60;100.00;102167.75;4948169;28;20055;-76
2023/08/10 08:50:46;;;;;;;8.30;1.70;;;;;;;18.57;100.00;102166.88;4953168;29;20054;-76
2023/08/10 08:53:14;;;;;;;4.55;1.60;;;;;;;18.46;100.00;102172.31;4932594;28;20035;-77
2023/08/10 08:55:42;;;;;;;4.40;1.30;;;;;;;18.39;100.00;102171.50;4950366;28;20054;-76
2023/08/10 08:58:09;;;;;;;12.18;1.58;;;;;;;18.36;100.00;102159.94;4949499;29;20414;-76
2023/08/10 09:00:38;;;;;;;6.57;1.50;;;;;;;18.37;100.00;102159.91;4933605;29;20537;-76
2023/08/10 09:03:06;;;;;;;4.88;1.40;;;;;;;18.43;100.00;102162.56;4948545;28;20050;-77
2023/08/10 09:05:33;;;;;;;5.60;1.13;;;;;;;18.48;100.00;102165.16;4948814;29;20524;-76
2023/08/10 09:08:01;;;;;;;6.10;1.38;;;;;;;18.49;100.00;102156.28;4938663;28;20047;-77
2023/08/10 09:10:29;;;;;;;2.92;1.10;;;;;;;18.54;100.00;102158.88;4924778;28;20087;-77
2023/08/10 09:13:08;;;;;;;4.85;1.15;;;;;;;18.57;100.00;102154.41;4951754;28;20066;-76
2023/08/10 09:15:35;;;;;;;3.03;1.13;;;;;;;18.63;100.00;102148.13;4951568;29;20051;-76
2023/08/10 09:18:05;;;;;;;6.03;1.45;;;;;;;18.70;100.00;102150.72;4950193;28;20437;-76
2023/08/10 09:20:33;;;;;;;3.90;1.40;;;;;;;18.82;100.00;102154.19;4949680;28;20047;-76
2023/08/10 09:23:01;;;;;;;5.70;1.58;;;;;;;18.95;100.00;102150.50;4938736;28;20055;-78
2023/08/10 09:25:37;;;;;;;7.78;2.42;;;;;;;19.04;100.00;102155.75;4920013;28;20066;-77
2023/08/10 09:28:10;;;;;;;7.15;1.50;;;;;;;19.11;100.00;102161.00;4950460;29;20464;-77
2023/08/10 09:30:38;;;;;;;11.43;1.48;;;;;;;19.12;100.00;102162.78;4951561;28;20050;-76
2023/08/10 09:33:06;;;;;;;4.65;1.52;;;;;;;19.14;100.00;102156.50;4933083;29;20062;-77
2023/08/10 09:35:33;;;;;;;4.47;1.30;;;;;;;19.22;100.00;102159.09;4951587;28;20062;-76
2023/08/10 09:38:02;;;;;;;6.32;1.60;;;;;;;19.31;100.00;102152.75;4935165;29;20055;-75
2023/08/10 09:40:30;;;;;;;6.88;1.50;;;;;;;19.29;100.00;102152.78;4915178;28;20046;-77
2023/08/10 09:42:57;;;;;;;3.08;1.33;;;;;;;19.37;100.00;102147.34;4962951;28;20448;-77
2023/08/10 09:45:24;;;;;;;6.72;1.33;;;;;;;19.43;100.00;102142.81;4950000;29;20059;-77
2023/08/10 09:47:53;;;;;;;4.03;1.15;;;;;;;19.47;100.00;102147.19;4950875;28;20050;-76
2023/08/10 09:50:20;;;;;;;4.32;1.20;;;;;;;19.45;100.00;102150.78;4947701;29;20055;-77
2023/08/10 09:52:49;;;;;;;3.85;1.10;;;;;;;19.41;100.00;102157.97;4951675;29;20039;-76
2023/08/10 09:55:16;;;;;;;4.63;1.27;;;;;;;19.41;100.00;102154.41;4907938;28;20066;-76
2023/08/10 09:57:44;;;;;;;3.33;1.02;;;;;;;19.40;100.00;102161.53;4959390;28;20039;-76
2023/08/10 10:00:23;;;;;;;2.05;1.20;;;;;;;19.40;100.00;102156.19;4931413;29;20055;-76
2023/08/10 10:02:51;;;;;;;8.35;2.03;;;;;;;19.46;100.00;102153.44;4951171;28;20511;-76
2023/08/10 10:05:19;;;;;;;4.53;1.10;;;;;;;19.57;100.00;102149.75;4948272;28;20078;-76
2023/08/10 10:07:50;;;;;;;2.60;1.17;;;;;;;19.63;100.00;102155.88;4951892;28;20054;-76
2023/08/10 10:10:18;;;;;;;1.85;0.85;;;;;;;19.62;100.00;102148.78;4948457;28;20579;-76
2023/08/10 10:12:49;;;;;;;4.15;1.20;;;;;;;19.66;100.00;102154.97;4893294;29;20059;-76
2023/08/10 10:15:19;;;;;;;3.42;0.88;;;;;;;19.64;100.00;102146.97;4942516;28;20054;-76
2023/08/10 10:17:52;;;;;;;3.60;1.05;;;;;;;19.68;100.00;102150.50;4964783;28;20050;-76
2023/08/10 10:20:20;;;;;;;3.78;1.20;;;;;;;19.77;100.00;102137.03;4946231;29;20058;-76
2023/08/10 10:22:48;;;;;;;5.47;1.13;;;;;;;19.84;100.00;102141.34;4929294;28;20066;-76
2023/08/10 10:25:19;;;;;;;6.93;1.50;;;;;;;19.97;100.00;102135.81;4961834;28;20039;-78
2023/08/10 10:27:51;;;;;;;3.33;1.20;;;;;;;20.05;100.00;102136.59;4904882;28;20048;-76
2023/08/10 10:30:21;;;;;;;4.05;1.00;;;;;;;20.08;100.00;102138.34;4934095;29;20047;-77
2023/08/10 10:32:49;;;;;;;;;;;;;;;20.07;99.93;102140.13;4934158;29;20047;-77
2023/08/10 10:35:25;;;;;;;4.38;1.45;;;;;;;20.17;100.00;102136.41;4946680;28;19922;-77
2023/08/10 10:37:57;;;;;;;3.17;1.10;;;;;;;20.22;100.00;102131.84;4952099;28;20503;-76
2023/08/10 10:40:26;;;;;;;2.65;1.30;;;;;;;20.31;100.00;102136.16;4955768;28;20066;-77
2023/08/10 10:43:03;;;;;;;4.65;1.10;;;;;;;20.39;100.00;102136.91;4949229;29;20051;-77
2023/08/10 10:45:36;;;;;;;4.25;1.67;;;;;;;20.39;100.00;102139.56;4928984;28;20043;-77
2023/08/10 10:48:05;;;;;;;4.60;1.25;;;;;;;20.37;100.00;102132.50;4947412;29;20074;-77
2023/08/10 10:50:35;;;;;;;5.38;1.58;;;;;;;20.38;100.00;102135.16;4947639;29;20047;-76
2023/08/10 10:53:13;;;;;;;3.17;1.10;;;;;;;20.42;100.00;102128.81;4950979;29;20497;-76
2023/08/10 10:55:43;;;;;;;6.63;1.38;;;;;;;20.42;100.00;102126.16;4950398;29;20146;-76
2023/08/10 10:58:13;;;;;;;5.03;1.25;;;;;;;20.45;100.00;102131.47;4948392;29;20047;-76
2023/08/10 11:00:43;;;;;;;3.53;1.27;;;;;;;20.52;100.00;102124.19;4914269;28;20059;-76
2023/08/10 11:03:15;;;;;;;4.97;1.02;;;;;;;20.54;100.00;102117.00;4947238;28;20306;-75
2023/08/10 11:05:43;;;;;;;1.85;1.02;;;;;;;20.54;100.00;102119.69;4950476;28;20059;-76
2023/08/10 11:08:14;;;;;;;6.63;1.58;;;;;;;20.59;100.00;102123.16;4946502;29;20039;-77
2023/08/10 11:10:43;;;;;;;3.78;1.05;;;;;;;20.69;100.00;102123.03;4949083;28;20054;-75
2023/08/10 11:13:11;;;;;;;9.18;1.52;;;;;;;20.71;99.10;102121.22;4947605;28;20524;-75
2023/08/10 11:15:38;;;;;;;3.15;0.80;;;;;;;20.70;98.85;102127.47;4911231;28;20520;-75
2023/08/10 11:18:14;;;;;;;6.75;1.50;;;;;;;20.72;99.91;102122.97;4974965;28;20429;-75
2023/08/10 11:20:45;;;;;;;5.50;1.30;;;;;;;20.75;100.00;102134.50;4941364;28;20047;-76
2023/08/10 11:23:13;;;;;;;5.18;1.20;;;;;;;20.71;100.00;102127.44;4963315;28;20055;-77